Time;durP1;ratioP1;P1;durP2;ratioP2;P2;SDS_P1;SDS_P2;PMS_P1;PMS_P2;Temp;Humidity;BMP_temperature;BMP_pressure;BME280_temperature;BME280_humidity;BME280_pressure;Samples;Min_cycle;Max_cycle;Signal;HPM_P1;HPM_P2
2021/06/07 00:00:28;;;;;;;4.07;2.05;;;13.50;94.40;;;;;;5044134;28;20139;-80
2021/06/07 00:02:55;;;;;;;3.15;1.80;;;13.50;94.40;;;;;;5042202;28;20064;-79
2021/06/07 00:05:23;;;;;;;3.40;2.30;;;13.40;94.40;;;;;;5043498;28;20041;-79
2021/06/07 00:07:50;;;;;;;3.92;1.95;;;13.40;95.00;;;;;;5075329;28;20140;-79
2021/06/07 00:10:18;;;;;;;2.33;1.88;;;13.40;95.50;;;;;;5050401;28;20038;-79
2021/06/07 00:12:45;;;;;;;2.03;1.83;;;13.30;95.80;;;;;;5042152;28;20049;-79
2021/06/07 00:15:16;;;;;;;2.38;1.83;;;13.30;95.90;;;;;;5044511;28;20477;-80
2021/06/07 00:17:43;;;;;;;2.58;2.13;;;13.30;96.10;;;;;;5038768;28;20042;-79
2021/06/07 00:20:18;;;;;;;3.05;2.00;;;13.30;96.70;;;;;;5041855;28;20129;-80
2021/06/07 00:22:45;;;;;;;3.63;1.63;;;13.20;96.80;;;;;;5076368;28;20051;-80
2021/06/07 00:25:12;;;;;;;2.63;2.10;;;13.20;96.80;;;;;;5043204;28;20112;-79
2021/06/07 00:27:39;;;;;;;2.53;1.88;;;13.20;96.80;;;;;;5043419;28;20045;-79
2021/06/07 00:30:07;;;;;;;5.47;2.03;;;13.20;97.10;;;;;;5048943;28;20475;-79
2021/06/07 00:32:33;;;;;;;2.17;1.98;;;13.20;97.00;;;;;;5054646;28;20147;-80
2021/06/07 00:35:00;;;;;;;7.50;2.00;;;13.10;97.50;;;;;;5039791;28;20084;-79
2021/06/07 00:37:27;;;;;;;6.55;2.20;;;13.10;97.60;;;;;;5042423;28;21382;-79
2021/06/07 00:39:54;;;;;;;2.35;1.90;;;13.10;98.00;;;;;;5037390;28;20053;-80
2021/06/07 00:42:20;;;;;;;2.40;2.20;;;13.00;98.10;;;;;;5041328;28;20056;-80
2021/06/07 00:44:47;;;;;;;2.90;2.28;;;13.00;98.20;;;;;;5041934;28;20453;-79
2021/06/07 00:47:14;;;;;;;2.70;1.95;;;12.90;98.70;;;;;;5037450;28;21446;-79
2021/06/07 00:49:42;;;;;;;5.80;2.35;;;12.90;98.70;;;;;;5039530;28;20053;-80
2021/06/07 00:52:08;;;;;;;2.97;1.75;;;12.90;99.20;;;;;;5039279;28;20156;-79
2021/06/07 00:54:35;;;;;;;2.33;2.10;;;12.90;99.70;;;;;;5037492;28;20140;-79
2021/06/07 00:57:03;;;;;;;2.80;2.10;;;12.80;99.70;;;;;;5039188;28;20068;-79
2021/06/07 00:59:29;;;;;;;7.25;2.45;;;12.80;99.60;;;;;;5040307;28;20137;-80
2021/06/07 01:01:56;;;;;;;4.43;2.35;;;12.70;99.90;;;;;;5035752;28;20707;-79
2021/06/07 01:04:23;;;;;;;3.45;2.17;;;12.70;99.90;;;;;;5043419;28;20057;-80
2021/06/07 01:06:50;;;;;;;3.08;2.40;;;12.70;99.90;;;;;;5036383;28;20377;-80
2021/06/07 01:09:16;;;;;;;4.68;2.30;;;12.70;99.90;;;;;;5042251;28;20567;-80
2021/06/07 01:11:43;;;;;;;5.07;2.47;;;12.60;99.90;;;;;;5048683;28;20571;-80
2021/06/07 01:14:10;;;;;;;2.70;2.00;;;12.60;99.90;;;;;;5049089;28;20576;-80
2021/06/07 01:16:37;;;;;;;4.03;2.33;;;12.50;99.90;;;;;;5073841;28;20508;-79
2021/06/07 01:19:07;;;;;;;2.53;2.15;;;12.50;99.90;;;;;;5039685;28;20049;-79
2021/06/07 01:21:34;;;;;;;2.47;2.25;;;12.50;99.90;;;;;;5038923;28;20049;-79
2021/06/07 01:24:01;;;;;;;3.85;2.25;;;12.50;99.90;;;;;;5041176;28;20053;-79
2021/06/07 01:26:27;;;;;;;4.22;2.67;;;12.50;99.90;;;;;;5043928;28;52868;-79
2021/06/07 01:28:55;;;;;;;2.63;2.42;;;12.40;99.90;;;;;;5045725;28;20063;-80
2021/06/07 01:31:22;;;;;;;3.10;2.65;;;12.40;99.90;;;;;;5040906;28;20095;-79
2021/06/07 01:33:54;;;;;;;6.93;2.53;;;12.40;99.90;;;;;;5040323;28;20080;-79
2021/06/07 01:36:21;;;;;;;3.30;3.00;;;12.40;99.90;;;;;;5041424;28;20052;-79
2021/06/07 01:38:48;;;;;;;3.53;2.25;;;12.30;99.90;;;;;;5038771;28;20053;-79
2021/06/07 01:41:16;;;;;;;3.95;2.25;;;12.40;99.90;;;;;;5037791;28;20067;-79
2021/06/07 01:43:44;;;;;;;3.00;2.70;;;12.40;99.90;;;;;;5039152;28;20055;-79
2021/06/07 01:46:11;;;;;;;4.75;2.88;;;12.40;99.90;;;;;;5041501;28;20073;-79
2021/06/07 01:48:38;;;;;;;3.75;3.08;;;12.40;99.90;;;;;;5040163;28;20099;-80
2021/06/07 01:51:08;;;;;;;9.50;3.13;;;12.30;99.90;;;;;;5043863;28;20063;-79
2021/06/07 01:53:35;;;;;;;3.08;2.65;;;12.30;99.90;;;;;;5042704;28;20087;-80
2021/06/07 01:56:06;;;;;;;5.05;2.50;;;12.30;99.90;;;;;;5039377;28;20048;-79
2021/06/07 01:58:33;;;;;;;5.75;3.00;;;12.30;99.90;;;;;;5041906;28;20055;-78
2021/06/07 02:01:04;;;;;;;5.55;2.78;;;12.30;99.90;;;;;;5040602;28;20053;-79
2021/06/07 02:03:31;;;;;;;6.07;2.63;;;12.20;99.90;;;;;;5037951;28;20473;-79
2021/06/07 02:06:03;;;;;;;4.03;2.40;;;12.20;99.90;;;;;;5042668;28;20057;-79
2021/06/07 02:08:31;;;;;;;3.97;2.53;;;12.20;99.90;;;;;;5046421;28;21492;-79
2021/06/07 02:11:04;;;;;;;4.03;2.40;;;12.20;99.90;;;;;;5043886;28;20049;-79
2021/06/07 02:13:31;;;;;;;5.03;2.88;;;12.10;99.90;;;;;;5048668;28;20046;-79
2021/06/07 02:16:00;;;;;;;2.65;2.40;;;12.10;99.90;;;;;;5046001;28;20052;-79
2021/06/07 02:18:29;;;;;;;4.20;2.40;;;12.10;99.90;;;;;;5080941;28;20045;-80
2021/06/07 02:20:56;;;;;;;4.82;2.97;;;12.10;99.90;;;;;;5044306;28;20036;-79
2021/06/07 02:23:24;;;;;;;2.53;2.33;;;12.10;99.90;;;;;;5041460;28;20049;-80
2021/06/07 02:25:51;;;;;;;5.28;2.50;;;12.00;99.90;;;;;;5041694;28;20057;-80
2021/06/07 02:28:19;;;;;;;3.95;2.75;;;12.00;99.90;;;;;;5043560;28;20044;-80
2021/06/07 02:30:46;;;;;;;10.70;4.43;;;12.00;99.90;;;;;;5048566;28;20057;-79
2021/06/07 02:33:14;;;;;;;3.40;2.88;;;12.00;99.90;;;;;;5042227;28;20112;-80
2021/06/07 02:35:42;;;;;;;4.82;2.97;;;11.90;99.90;;;;;;5040874;28;20050;-79
2021/06/07 02:38:09;;;;;;;4.95;2.70;;;11.90;99.90;;;;;;5037180;28;20067;-79
2021/06/07 02:40:37;;;;;;;4.63;2.92;;;11.90;99.90;;;;;;5040422;28;20053;-79
2021/06/07 02:43:06;;;;;;;2.97;2.70;;;11.90;99.90;;;;;;5034578;28;20056;-79
2021/06/07 02:45:33;;;;;;;4.60;2.60;;;11.90;99.90;;;;;;5041895;28;20049;-79
2021/06/07 02:48:04;;;;;;;3.28;2.58;;;11.80;99.90;;;;;;5045355;28;20057;-79
2021/06/07 02:50:36;;;;;;;4.18;2.42;;;11.80;99.90;;;;;;5041572;28;20510;-79
2021/06/07 02:53:04;;;;;;;3.93;2.67;;;11.80;99.90;;;;;;5048931;28;20045;-80
2021/06/07 02:55:37;;;;;;;3.30;2.97;;;11.80;99.90;;;;;;5057076;28;20104;-80
2021/06/07 02:58:06;;;;;;;3.70;2.50;;;11.70;99.90;;;;;;5042521;28;20055;-79
2021/06/07 03:00:42;;;;;;;4.22;2.42;;;11.70;99.90;;;;;;5038892;28;20606;-78
2021/06/07 03:03:10;;;;;;;4.95;2.22;;;11.70;99.90;;;;;;5055222;28;20567;-79
2021/06/07 03:05:38;;;;;;;3.20;2.63;;;11.70;99.90;;;;;;5037866;28;20120;-78
2021/06/07 03:08:10;;;;;;;3.10;2.80;;;11.60;99.90;;;;;;5040814;28;20056;-79
2021/06/07 03:10:38;;;;;;;6.55;2.58;;;11.60;99.90;;;;;;5041540;28;20492;-79
2021/06/07 03:13:05;;;;;;;4.57;2.65;;;11.60;99.90;;;;;;5044748;28;20071;-79
2021/06/07 03:15:32;;;;;;;5.35;2.60;;;11.60;99.90;;;;;;5041823;28;20416;-79
2021/06/07 03:18:04;;;;;;;4.38;2.97;;;11.60;99.90;;;;;;5038668;28;20080;-79
2021/06/07 03:20:32;;;;;;;4.25;2.78;;;11.60;99.90;;;;;;5046158;28;20491;-79
2021/06/07 03:23:02;;;;;;;3.10;2.58;;;11.60;99.90;;;;;;5038242;28;20057;-80
2021/06/07 03:25:32;;;;;;;7.00;3.05;;;11.50;99.90;;;;;;5048622;28;20049;-80
2021/06/07 03:27:59;;;;;;;4.85;3.13;;;11.50;99.90;;;;;;5037431;28;20113;-79
2021/06/07 03:30:27;;;;;;;4.10;2.83;;;11.50;99.90;;;;;;5040947;28;20050;-80
2021/06/07 03:32:54;;;;;;;3.65;3.05;;;11.50;99.90;;;;;;5038494;28;20041;-80
2021/06/07 03:35:21;;;;;;;6.00;2.85;;;11.60;99.90;;;;;;5047011;28;20062;-79
2021/06/07 03:37:48;;;;;;;4.82;3.33;;;11.50;99.90;;;;;;5073266;28;20065;-79
2021/06/07 03:40:22;;;;;;;6.63;2.72;;;11.50;99.90;;;;;;5042570;28;20049;-79
2021/06/07 03:42:50;;;;;;;8.35;3.05;;;11.50;99.90;;;;;;5037840;28;20048;-80
2021/06/07 03:45:17;;;;;;;8.02;3.15;;;11.50;99.90;;;;;;5036603;28;20518;-79
2021/06/07 03:47:46;;;;;;;6.22;3.17;;;11.60;99.90;;;;;;5040133;28;20041;-79
2021/06/07 03:50:15;;;;;;;3.92;2.83;;;11.60;99.90;;;;;;5039742;28;20060;-79
2021/06/07 03:52:43;;;;;;;7.38;3.17;;;11.60;99.90;;;;;;5037577;28;20555;-80
2021/06/07 03:55:12;;;;;;;6.07;2.95;;;11.60;99.90;;;;;;5039873;28;20132;-80
2021/06/07 03:57:40;;;;;;;9.18;3.20;;;11.60;99.90;;;;;;5039072;28;20052;-82
2021/06/07 04:00:15;;;;;;;7.28;3.20;;;11.60;99.90;;;;;;5038386;28;20053;-79
2021/06/07 04:02:45;;;;;;;4.30;3.10;;;11.70;99.90;;;;;;5044519;28;20471;-79
2021/06/07 04:05:13;;;;;;;6.50;3.22;;;11.70;99.90;;;;;;5035779;28;20098;-79
2021/06/07 04:07:41;;;;;;;4.53;3.30;;;11.70;99.90;;;;;;5025368;28;20488;-80
2021/06/07 04:10:11;;;;;;;6.20;3.10;;;11.80;99.90;;;;;;5040278;28;20084;-78
2021/06/07 04:12:38;;;;;;;6.15;3.72;;;11.80;99.90;;;;;;5073689;28;20144;-79
2021/06/07 04:15:08;;;;;;;4.47;3.17;;;11.80;99.90;;;;;;5074941;28;20093;-78
2021/06/07 04:17:35;;;;;;;4.00;3.50;;;11.90;99.90;;;;;;5042907;28;20057;-79
2021/06/07 04:20:11;;;;;;;4.63;3.20;;;11.90;99.90;;;;;;5045441;28;20095;-78
2021/06/07 04:22:41;;;;;;;8.52;3.70;;;12.00;99.90;;;;;;5041881;28;20041;-78
2021/06/07 04:25:10;;;;;;;6.93;4.15;;;12.10;99.90;;;;;;5067279;28;20064;-79
2021/06/07 04:27:38;;;;;;;7.30;4.03;;;12.20;99.90;;;;;;5040549;28;20056;-79
2021/06/07 04:30:11;;;;;;;4.13;3.72;;;12.30;99.90;;;;;;5037905;28;20061;-79
2021/06/07 04:32:38;;;;;;;4.22;3.58;;;12.40;99.90;;;;;;5059381;28;20080;-78
2021/06/07 04:35:07;;;;;;;5.30;3.63;;;12.50;99.90;;;;;;5043966;28;20052;-78
2021/06/07 04:37:41;;;;;;;10.77;4.00;;;12.60;99.90;;;;;;5040180;28;20132;-79
2021/06/07 04:40:11;;;;;;;6.68;3.88;;;12.70;99.90;;;;;;5047768;28;20474;-80
2021/06/07 04:42:39;;;;;;;4.80;3.35;;;12.80;99.90;;;;;;5056851;28;20045;-78
2021/06/07 04:45:09;;;;;;;3.35;2.97;;;13.00;99.90;;;;;;5054101;28;20454;-79
2021/06/07 04:47:36;;;;;;;4.88;3.40;;;13.10;99.90;;;;;;5042903;28;20045;-78
2021/06/07 04:50:07;;;;;;;10.23;3.08;;;13.20;99.90;;;;;;5049678;28;20059;-80
2021/06/07 04:52:35;;;;;;;4.80;3.00;;;13.30;99.90;;;;;;5041706;28;20099;-81
2021/06/07 04:55:03;;;;;;;5.60;3.05;;;13.40;99.90;;;;;;5040667;28;20132;-79
2021/06/07 04:57:30;;;;;;;4.05;2.95;;;13.50;99.90;;;;;;5040247;28;20485;-79
2021/06/07 04:59:57;;;;;;;5.78;2.83;;;13.60;99.90;;;;;;5045013;28;20058;-79
2021/06/07 05:02:24;;;;;;;9.82;3.75;;;13.80;99.90;;;;;;5041657;28;21383;-78
2021/06/07 05:04:55;;;;;;;6.07;3.20;;;13.90;99.90;;;;;;5041649;28;20181;-79
2021/06/07 05:07:21;;;;;;;3.78;2.92;;;14.00;99.90;;;;;;5075723;28;20132;-77
2021/06/07 05:09:48;;;;;;;5.30;3.05;;;14.10;99.90;;;;;;5041331;28;20045;-78
2021/06/07 05:12:15;;;;;;;5.45;2.67;;;14.20;99.90;;;;;;5049482;28;20560;-80
2021/06/07 05:14:43;;;;;;;3.42;2.65;;;14.30;99.90;;;;;;5045045;28;20037;-79
2021/06/07 05:17:10;;;;;;;5.93;2.72;;;14.40;99.90;;;;;;5043390;28;20051;-79
2021/06/07 05:19:37;;;;;;;4.65;3.00;;;14.40;99.90;;;;;;5055780;28;20055;-80
2021/06/07 05:22:03;;;;;;;6.13;2.70;;;14.60;99.90;;;;;;5047473;28;20049;-79
2021/06/07 05:24:30;;;;;;;4.68;2.88;;;14.70;99.90;;;;;;5044907;28;20063;-79
2021/06/07 05:26:57;;;;;;;5.38;2.97;;;14.80;99.90;;;;;;5045796;28;20162;-80
2021/06/07 05:29:24;;;;;;;5.43;2.92;;;14.80;99.90;;;;;;5049486;28;20044;-79
2021/06/07 05:31:50;;;;;;;7.13;3.25;;;15.00;99.90;;;;;;5044528;28;20049;-79
2021/06/07 05:34:17;;;;;;;4.57;2.38;;;15.00;99.90;;;;;;5043788;28;20057;-79
2021/06/07 05:36:44;;;;;;;3.75;2.20;;;15.20;99.90;;;;;;5058968;28;20068;-79
2021/06/07 05:39:14;;;;;;;3.33;1.92;;;15.30;99.90;;;;;;5045490;28;20057;-80
2021/06/07 05:41:40;;;;;;;3.30;2.10;;;15.40;99.90;;;;;;5048658;28;20132;-79
2021/06/07 05:44:07;;;;;;;3.47;2.17;;;15.50;99.90;;;;;;5037012;28;20049;-79
2021/06/07 05:46:34;;;;;;;4.05;1.77;;;15.60;99.90;;;;;;5043429;28;20069;-79
2021/06/07 05:49:01;;;;;;;3.45;1.80;;;15.70;99.90;;;;;;5060852;28;20053;-79
2021/06/07 05:51:28;;;;;;;4.65;1.80;;;15.70;99.80;;;;;;5035447;28;21072;-78
2021/06/07 05:53:54;;;;;;;5.50;1.80;;;15.90;99.50;;;;;;5045210;28;20056;-79
2021/06/07 05:56:21;;;;;;;5.47;1.50;;;15.90;98.90;;;;;;5047122;28;20105;-79
2021/06/07 05:58:48;;;;;;;3.15;1.60;;;16.00;98.10;;;;;;5044039;28;20061;-79
2021/06/07 06:01:15;;;;;;;2.55;1.50;;;16.10;97.90;;;;;;5047729;28;20052;-79
2021/06/07 06:03:42;;;;;;;2.85;1.70;;;16.20;97.60;;;;;;5046405;28;20064;-79
2021/06/07 06:06:09;;;;;;;2.33;1.40;;;16.30;97.60;;;;;;5044319;28;20060;-79
2021/06/07 06:08:35;;;;;;;5.40;1.52;;;16.40;96.90;;;;;;5045967;28;20049;-80
2021/06/07 06:11:02;;;;;;;3.40;1.10;;;16.50;95.70;;;;;;5042664;28;20045;-79
2021/06/07 06:13:50;;;;;;;2.78;1.50;;;16.60;95.50;;;;;;5056634;28;20049;-79
2021/06/07 06:16:19;;;;;;;4.38;1.20;;;16.70;94.80;;;;;;5043471;28;20049;-80
2021/06/07 06:18:46;;;;;;;6.28;1.40;;;16.80;94.80;;;;;;5036978;28;20045;-79
2021/06/07 06:21:14;;;;;;;0.75;0.75;;;16.90;94.10;;;;;;5044135;28;20542;-79
2021/06/07 06:23:41;;;;;;;3.45;1.35;;;17.00;93.10;;;;;;5045121;28;20058;-79
2021/06/07 06:26:09;;;;;;;2.15;1.13;;;17.10;92.50;;;;;;5043336;28;20063;-79
2021/06/07 06:28:38;;;;;;;4.32;1.02;;;17.20;92.40;;;;;;5044554;28;20052;-79
2021/06/07 06:31:06;;;;;;;0.85;0.75;;;17.30;92.40;;;;;;5043609;28;20053;-79
2021/06/07 06:33:33;;;;;;;1.25;0.90;;;17.40;92.60;;;;;;5043496;28;20057;-79
2021/06/07 06:36:00;;;;;;;2.40;1.00;;;17.50;91.70;;;;;;5044513;28;20124;-79
2021/06/07 06:38:27;;;;;;;4.38;1.42;;;17.60;91.70;;;;;;5043119;28;20059;-79
2021/06/07 06:40:54;;;;;;;2.45;1.33;;;17.80;92.40;;;;;;5039208;28;20037;-79
2021/06/07 06:43:21;;;;;;;4.15;1.00;;;17.90;91.90;;;;;;5050711;28;20148;-79
2021/06/07 06:45:49;;;;;;;2.75;1.02;;;18.00;90.80;;;;;;5067529;28;20059;-79
2021/06/07 06:48:16;;;;;;;1.73;0.95;;;18.20;91.00;;;;;;5062465;28;20515;-79
2021/06/07 06:50:43;;;;;;;2.08;0.68;;;18.30;90.70;;;;;;5039946;28;20049;-79
2021/06/07 06:53:16;;;;;;;2.10;0.80;;;18.40;90.30;;;;;;5045199;28;20072;-80
2021/06/07 06:55:47;;;;;;;2.65;0.68;;;18.50;88.70;;;;;;5042730;28;20057;-79
2021/06/07 06:58:15;;;;;;;1.33;0.57;;;18.60;88.60;;;;;;5043190;28;20088;-79
2021/06/07 07:00:43;;;;;;;2.20;0.70;;;18.70;87.40;;;;;;5042940;28;20109;-79
2021/06/07 07:03:18;;;;;;;0.47;0.47;;;18.80;87.40;;;;;;5060056;28;20420;-80
2021/06/07 07:05:46;;;;;;;2.80;0.70;;;18.80;85.00;;;;;;5056329;28;20054;-79
2021/06/07 07:08:14;;;;;;;1.08;0.63;;;18.90;85.20;;;;;;5044826;28;20113;-79
2021/06/07 07:10:44;;;;;;;4.13;0.60;;;19.10;83.20;;;;;;5044639;28;20579;-79
2021/06/07 07:13:11;;;;;;;4.78;1.48;;;19.10;83.10;;;;;;5049668;28;20048;-79
2021/06/07 07:15:39;;;;;;;2.35;0.57;;;19.20;84.20;;;;;;5037689;28;20113;-80
2021/06/07 07:18:07;;;;;;;1.92;0.68;;;19.30;84.30;;;;;;5041873;28;20144;-79
2021/06/07 07:20:35;;;;;;;1.42;0.60;;;19.40;83.90;;;;;;5073632;28;20091;-80
2021/06/07 07:23:03;;;;;;;1.45;0.40;;;19.50;81.30;;;;;;5055913;28;21453;-79
2021/06/07 07:25:30;;;;;;;5.22;0.52;;;19.60;83.40;;;;;;5040401;28;20049;-79
2021/06/07 07:28:01;;;;;;;1.55;0.50;;;19.70;79.80;;;;;;5040336;28;20156;-80
2021/06/07 07:30:28;;;;;;;0.70;0.70;;;19.80;80.70;;;;;;5036866;28;20377;-79
2021/06/07 07:32:55;;;;;;;5.00;0.60;;;19.90;78.20;;;;;;5048168;28;20053;-80
2021/06/07 07:35:23;;;;;;;0.75;0.55;;;19.90;78.90;;;;;;5039184;28;20505;-80
2021/06/07 07:37:50;;;;;;;6.30;0.95;;;20.00;78.80;;;;;;5074333;28;20136;-79
2021/06/07 07:40:19;;;;;;;3.40;0.77;;;20.00;78.80;;;;;;5043719;28;21050;-79
2021/06/07 07:42:48;;;;;;;1.88;0.63;;;20.00;77.20;;;;;;5043707;28;20075;-79
2021/06/07 07:45:18;;;;;;;1.23;0.60;;;20.10;78.80;;;;;;5048543;28;20126;-80
2021/06/07 07:47:46;;;;;;;1.30;0.75;;;20.10;79.10;;;;;;5044967;28;20045;-79
2021/06/07 07:50:18;;;;;;;1.70;0.50;;;20.20;78.70;;;;;;5048543;28;20079;-79
2021/06/07 07:52:46;;;;;;;0.60;0.40;;;20.30;77.30;;;;;;5054959;28;20045;-80
2021/06/07 07:55:15;;;;;;;1.23;0.70;;;20.40;76.80;;;;;;5079571;28;20055;-79
2021/06/07 07:57:42;;;;;;;0.90;0.60;;;20.60;75.90;;;;;;5045271;28;20044;-80
2021/06/07 08:00:13;;;;;;;3.10;0.45;;;20.60;74.50;;;;;;5036079;28;20049;-80
2021/06/07 08:02:40;;;;;;;0.57;0.38;;;20.70;72.80;;;;;;5045015;28;20053;-79
2021/06/07 08:05:09;;;;;;;1.50;0.63;;;20.70;73.20;;;;;;5044716;28;20103;-80
2021/06/07 08:07:36;;;;;;;1.35;0.50;;;20.70;73.60;;;;;;5047135;28;20047;-79
2021/06/07 08:10:04;;;;;;;1.30;1.02;;;20.80;74.60;;;;;;5047991;28;20049;-79
2021/06/07 08:12:30;;;;;;;1.20;0.57;;;20.90;71.70;;;;;;5046280;28;20114;-79
2021/06/07 08:14:57;;;;;;;0.70;0.60;;;20.90;71.90;;;;;;5049019;28;20459;-80
2021/06/07 08:17:24;;;;;;;2.20;0.63;;;21.00;71.50;;;;;;5048867;28;21919;-79
2021/06/07 08:19:51;;;;;;;1.00;0.40;;;21.10;70.40;;;;;;5046464;28;20045;-80
2021/06/07 08:22:19;;;;;;;2.47;0.60;;;21.10;70.60;;;;;;5048891;28;20064;-80
2021/06/07 08:24:46;;;;;;;4.35;0.85;;;21.10;69.40;;;;;;5048547;28;20494;-79
2021/06/07 08:27:13;;;;;;;1.85;0.70;;;21.20;69.10;;;;;;5045650;28;20044;-80
2021/06/07 08:29:39;;;;;;;1.77;0.70;;;21.20;69.20;;;;;;5060027;28;20044;-80
2021/06/07 08:32:07;;;;;;;2.35;0.70;;;21.30;69.70;;;;;;5048318;28;20080;-80
2021/06/07 08:34:34;;;;;;;1.00;0.70;;;21.40;69.50;;;;;;5045169;28;20068;-80
2021/06/07 08:37:01;;;;;;;1.42;0.80;;;21.50;70.20;;;;;;5048259;28;20063;-80
2021/06/07 08:39:28;;;;;;;1.52;0.73;;;21.60;71.20;;;;;;5048038;28;20107;-80
2021/06/07 08:41:57;;;;;;;1.90;0.82;;;21.70;69.80;;;;;;5041601;28;20075;-80
2021/06/07 08:44:25;;;;;;;2.67;0.90;;;21.80;70.70;;;;;;5046751;28;20052;-80
2021/06/07 08:46:52;;;;;;;2.47;0.80;;;21.80;69.00;;;;;;5046782;28;20527;-78
2021/06/07 08:49:19;;;;;;;2.88;0.90;;;21.90;68.80;;;;;;5062633;28;20053;-79
2021/06/07 08:51:46;;;;;;;1.23;0.65;;;21.90;68.50;;;;;;5045018;28;20040;-80
2021/06/07 08:54:13;;;;;;;1.13;0.50;;;22.00;68.10;;;;;;5043363;28;20053;-79
2021/06/07 08:56:43;;;;;;;2.90;1.20;;;22.00;69.60;;;;;;5072155;28;20049;-79
2021/06/07 08:59:11;;;;;;;5.47;1.73;;;22.20;68.60;;;;;;5048773;28;20041;-79
2021/06/07 09:01:39;;;;;;;2.60;1.13;;;22.20;68.60;;;;;;5048230;28;20132;-80
2021/06/07 09:04:09;;;;;;;2.90;1.10;;;22.30;71.20;;;;;;5060219;28;20072;-79
2021/06/07 09:06:39;;;;;;;5.15;1.20;;;22.40;68.10;;;;;;5078417;28;20055;-79
2021/06/07 09:09:08;;;;;;;1.52;0.73;;;22.50;69.20;;;;;;5052894;28;20144;-79
2021/06/07 09:11:50;;;;;;;3.15;1.00;;;22.70;68.50;;;;;;5045531;28;20052;-79
2021/06/07 09:14:25;;;;;;;4.72;0.90;;;22.80;67.40;;;;;;5046288;28;20041;-80
2021/06/07 09:16:52;;;;;;;1.95;0.90;;;22.90;69.90;;;;;;5046366;28;20052;-79
2021/06/07 09:19:26;;;;;;;2.42;1.42;;;23.10;66.70;;;;;;5046256;28;20068;-80
2021/06/07 09:21:56;;;;;;;2.90;1.13;;;23.10;68.30;;;;;;5044719;28;20060;-79
2021/06/07 09:24:23;;;;;;;1.73;1.05;;;23.20;66.60;;;;;;5043044;28;20113;-79
2021/06/07 09:26:51;;;;;;;1.48;1.38;;;23.10;67.00;;;;;;5049242;28;20053;-79
2021/06/07 09:29:23;;;;;;;2.55;1.02;;;23.10;66.30;;;;;;5041959;28;20049;-80
2021/06/07 09:31:56;;;;;;;2.53;1.08;;;23.10;68.90;;;;;;5061815;28;20056;-80
2021/06/07 09:34:37;;;;;;;2.05;1.40;;;23.20;67.30;;;;;;5045365;28;20049;-79
2021/06/07 09:37:13;;;;;;;3.28;1.52;;;23.20;67.60;;;;;;5057007;28;20095;-79
2021/06/07 09:39:41;;;;;;;5.00;2.05;;;23.20;68.90;;;;;;5057600;28;20055;-79
2021/06/07 09:42:13;;;;;;;3.40;1.23;;;23.40;70.70;;;;;;5043138;28;20526;-79
2021/06/07 09:44:53;;;;;;;3.08;1.33;;;23.50;67.30;;;;;;5055696;28;20056;-79
2021/06/07 09:47:31;;;;;;;1.90;1.40;;;23.60;68.50;;;;;;5048904;28;20060;-79
2021/06/07 09:50:08;;;;;;;4.45;1.65;;;23.70;68.70;;;;;;5049938;28;20051;-78
2021/06/07 09:52:53;;;;;;;3.33;1.55;;;23.80;70.40;;;;;;5059391;28;20339;-78
2021/06/07 09:55:22;;;;;;;3.47;1.98;;;23.80;72.00;;;;;;5049881;28;20050;-79
2021/06/07 09:57:55;;;;;;;7.15;1.90;;;24.00;69.20;;;;;;5042906;28;20108;-78
2021/06/07 10:00:33;;;;;;;31.40;3.33;;;24.10;67.70;;;;;;5056358;28;20049;-79
2021/06/07 10:03:23;;;;;;;3.53;2.10;;;24.10;68.70;;;;;;5049313;28;20072;-79
2021/06/07 10:06:02;;;;;;;4.20;2.00;;;24.20;67.10;;;;;;5067185;28;20053;-78
2021/06/07 10:08:46;;;;;;;3.90;1.65;;;24.20;69.50;;;;;;5045382;28;20045;-78
2021/06/07 10:11:19;;;;;;;3.33;1.85;;;24.20;70.50;;;;;;5048955;28;20106;-79
2021/06/07 10:13:47;;;;;;;3.35;2.47;;;24.40;68.70;;;;;;5072810;28;20063;-79
2021/06/07 10:16:14;;;;;;;3.03;1.98;;;24.50;67.40;;;;;;5043894;28;20064;-78
2021/06/07 10:18:42;;;;;;;2.97;2.00;;;24.50;67.90;;;;;;5041220;28;20440;-78
2021/06/07 10:21:11;;;;;;;3.53;1.98;;;24.60;69.70;;;;;;5039129;28;20051;-78
2021/06/07 10:23:38;;;;;;;3.25;1.90;;;24.70;67.90;;;;;;5043071;28;20052;-79
2021/06/07 10:26:06;;;;;;;4.63;1.67;;;24.80;67.70;;;;;;5074144;28;20057;-79
2021/06/07 10:28:39;;;;;;;3.97;1.80;;;24.90;68.30;;;;;;5054620;28;20058;-79
2021/06/07 10:31:10;;;;;;;3.63;1.58;;;24.90;65.40;;;;;;5042067;28;20053;-79
2021/06/07 10:33:39;;;;;;;5.65;2.60;;;25.00;66.60;;;;;;5056806;28;20075;-79
2021/06/07 10:36:21;;;;;;;2.40;1.65;;;25.00;64.60;;;;;;5039722;28;20054;-79
2021/06/07 10:38:52;;;;;;;4.63;1.33;;;25.00;67.00;;;;;;5059354;28;20412;-79
2021/06/07 10:41:27;;;;;;;2.65;1.65;;;25.20;67.10;;;;;;5039517;28;20105;-79
2021/06/07 10:43:59;;;;;;;3.15;1.52;;;25.30;65.90;;;;;;5044005;28;20037;-79
2021/06/07 10:46:30;;;;;;;2.80;1.40;;;25.40;65.60;;;;;;5045120;28;20048;-79
2021/06/07 10:48:59;;;;;;;1.40;1.30;;;25.50;64.70;;;;;;5059710;28;20061;-79
2021/06/07 10:51:29;;;;;;;4.00;1.80;;;25.70;66.80;;;;;;5040479;28;20049;-79
2021/06/07 10:54:34;;;;;;;2.13;1.50;;;25.80;64.70;;;;;;5044606;28;20061;-79
2021/06/07 10:57:22;;;;;;;2.42;1.35;;;25.80;65.70;;;;;;5043358;28;20044;-78
2021/06/07 10:59:52;;;;;;;3.53;1.20;;;25.90;66.60;;;;;;5073414;28;20384;-79
2021/06/07 11:02:20;;;;;;;2.25;1.20;;;26.10;65.10;;;;;;5039671;28;20481;-79
2021/06/07 11:05:22;;;;;;;2.17;1.10;;;26.20;63.50;;;;;;5042792;28;20045;-79
2021/06/07 11:08:09;;;;;;;4.63;1.33;;;26.30;64.70;;;;;;5039140;28;20132;-79
2021/06/07 11:10:40;;;;;;;1.70;1.60;;;26.50;64.70;;;;;;5052435;28;20053;-79
2021/06/07 11:13:11;;;;;;;2.30;1.40;;;26.70;62.90;;;;;;5048332;28;20065;-79
2021/06/07 11:15:45;;;;;;;2.08;1.35;;;26.80;61.10;;;;;;5038723;28;20052;-79
2021/06/07 11:18:31;;;;;;;4.13;1.38;;;26.80;61.60;;;;;;5043076;28;20592;-79
2021/06/07 11:20:58;;;;;;;3.65;1.70;;;26.90;65.20;;;;;;5050959;28;20052;-79
2021/06/07 11:23:32;;;;;;;2.03;1.50;;;27.00;61.40;;;;;;5060319;28;21388;-79
2021/06/07 11:26:00;;;;;;;2.88;1.67;;;27.10;61.30;;;;;;5078739;28;20049;-79
2021/06/07 11:28:48;;;;;;;4.13;1.20;;;27.20;61.80;;;;;;5045085;28;20048;-79
2021/06/07 11:31:14;;;;;;;3.97;1.20;;;27.40;63.10;;;;;;5044406;28;20056;-80
2021/06/07 11:33:56;;;;;;;1.90;1.40;;;27.60;62.70;;;;;;5060944;28;20552;-80
2021/06/07 11:36:42;;;;;;;5.07;1.50;;;27.80;58.80;;;;;;5046687;28;20412;-79
2021/06/07 11:39:49;;;;;;;3.00;1.10;;;27.90;60.50;;;;;;5058914;28;20049;-79
2021/06/07 11:42:22;;;;;;;2.92;1.27;;;28.10;61.00;;;;;;5045126;28;20105;-79
2021/06/07 11:45:06;;;;;;;5.07;1.30;;;28.40;60.90;;;;;;5047084;28;20150;-80
2021/06/07 11:47:36;;;;;;;2.53;1.25;;;28.70;60.50;;;;;;5043946;28;20137;-79
2021/06/07 11:50:12;;;;;;;3.30;1.20;;;29.00;59.40;;;;;;5062654;28;20053;-79
2021/06/07 11:52:48;;;;;;;1.63;1.20;;;29.50;58.80;;;;;;5050699;28;20496;-80
2021/06/07 11:55:33;;;;;;;1.73;1.00;;;29.90;56.60;;;;;;5051537;28;20481;-80
2021/06/07 11:58:09;;;;;;;2.55;1.48;;;30.30;57.90;;;;;;5050101;28;20053;-78
2021/06/07 12:00:41;;;;;;;3.28;1.50;;;30.60;55.30;;;;;;5043326;28;20693;-79
2021/06/07 12:03:11;;;;;;;3.55;1.60;;;30.90;57.30;;;;;;5058816;28;20053;-80
2021/06/07 12:05:40;;;;;;;2.97;1.30;;;31.40;54.90;;;;;;5043651;28;20729;-79
2021/06/07 12:08:12;;;;;;;3.45;1.10;;;31.90;53.90;;;;;;5076540;28;20136;-80
2021/06/07 12:10:41;;;;;;;3.00;1.50;;;32.50;52.30;;;;;;5037068;28;20124;-77
2021/06/07 12:13:25;;;;;;;3.13;1.58;;;33.00;53.60;;;;;;5039579;28;20101;-77
2021/06/07 12:16:00;;;;;;;6.90;2.20;;;33.60;50.70;;;;;;5070649;28;20072;-78
2021/06/07 12:18:46;;;;;;;5.30;2.08;;;34.00;48.40;;;;;;5054755;28;20132;-78
2021/06/07 12:21:19;;;;;;;2.25;1.98;;;34.20;49.50;;;;;;5049190;28;20128;-79
2021/06/07 12:24:32;;;;;;;3.05;1.58;;;34.50;48.80;;;;;;5043921;28;20049;-79
2021/06/07 12:29:31;;;;;;;5.28;2.05;;;35.00;48.20;;;;;;5043581;28;20072;-79
2021/06/07 12:32:03;;;;;;;3.30;1.70;;;35.50;45.80;;;;;;5075038;28;20052;-79
2021/06/07 12:34:31;;;;;;;4.80;1.80;;;35.70;46.70;;;;;;5058124;28;20059;-79
2021/06/07 12:36:57;;;;;;;3.92;2.78;;;36.00;48.00;;;;;;5036768;28;20041;-79
2021/06/07 12:39:24;;;;;;;3.00;2.03;;;36.10;44.40;;;;;;5033526;28;20508;-79
2021/06/07 12:41:51;;;;;;;3.42;2.55;;;36.10;45.70;;;;;;5057753;28;20496;-79
2021/06/07 12:44:22;;;;;;;4.70;1.63;;;36.30;45.60;;;;;;5043789;28;20063;-78
2021/06/07 12:46:52;;;;;;;2.20;1.98;;;36.70;45.20;;;;;;5040171;28;20045;-79
2021/06/07 12:49:29;;;;;;;3.72;1.98;;;36.80;44.20;;;;;;5057962;28;20423;-79
2021/06/07 12:52:02;;;;;;;1.90;1.40;;;36.70;43.40;;;;;;5037151;28;20053;-79
2021/06/07 12:54:31;;;;;;;4.75;2.28;;;36.80;46.90;;;;;;5050881;28;20075;-79
2021/06/07 12:57:02;;;;;;;2.65;1.48;;;37.30;44.30;;;;;;5042042;28;20052;-78
2021/06/07 12:59:31;;;;;;;3.08;1.40;;;37.40;44.00;;;;;;5055307;28;20052;-79
2021/06/07 13:01:58;;;;;;;6.88;1.80;;;37.50;45.10;;;;;;5042577;28;20064;-79